createdAt,value
2023-05-01T00:01:13.283Z,101558.19
2023-05-01T00:03:39.900Z,101552.31
2023-05-01T00:06:08.486Z,101546.50
2023-05-01T00:08:34.912Z,101559.41
2023-05-01T00:11:05.230Z,101552.59
2023-05-01T00:13:32.820Z,101553.13
2023-05-01T00:15:59.531Z,101559.84
2023-05-01T00:18:26.243Z,101555.50
2023-05-01T00:20:52.929Z,101546.75
2023-05-01T00:23:19.656Z,101545.00
2023-05-01T00:25:46.343Z,101552.47
2023-05-01T00:28:13.012Z,101543.00
2023-05-01T00:30:39.641Z,101545.59
2023-05-01T00:33:06.215Z,101543.00
2023-05-01T00:35:32.598Z,101551.03
2023-05-01T00:37:59.442Z,101550.88
2023-05-01T00:40:26.078Z,101548.00
2023-05-01T00:42:52.657Z,101546.03
2023-05-01T00:45:19.243Z,101543.34
2023-05-01T00:47:46.743Z,101549.22
2023-05-01T00:50:13.969Z,101542.19
2023-05-01T00:52:40.902Z,101536.31
2023-05-01T00:55:08.355Z,101539.44
2023-05-01T00:57:35.108Z,101538.66
2023-05-01T01:00:02.851Z,101530.19
2023-05-01T01:02:32.104Z,101531.66
2023-05-01T01:05:00.651Z,101530.66
2023-05-01T01:08:00.765Z,101537.41
2023-05-01T01:10:37.473Z,101530.34
2023-05-01T01:13:25.404Z,101531.81
2023-05-01T01:16:19.160Z,101530.84
2023-05-01T01:19:19.908Z,101525.69
2023-05-01T01:21:50.948Z,101527.16
2023-05-01T01:24:46.622Z,101519.03
2023-05-01T01:27:45.421Z,101520.88
2023-05-01T01:30:41.598Z,101511.75
2023-05-01T01:33:16.926Z,101515.38
2023-05-01T01:35:53.758Z,101508.41
2023-05-01T01:38:49.240Z,101510.00
2023-05-01T01:41:24.173Z,101510.94
2023-05-01T01:44:01.104Z,101504.94
2023-05-01T01:46:29.952Z,101506.69
2023-05-01T01:48:59.013Z,101502.22
2023-05-01T01:51:29.622Z,101498.63
2023-05-01T01:54:02.953Z,101495.53
2023-05-01T01:56:31.115Z,101500.75
2023-05-01T01:59:01.137Z,101497.16
2023-05-01T02:01:29.345Z,101495.16
2023-05-01T02:04:00.388Z,101495.72
2023-05-01T02:06:29.100Z,101492.78
2023-05-01T02:08:58.441Z,101484.91
2023-05-01T02:11:26.291Z,101486.34
2023-05-01T02:13:55.229Z,101486.19
2023-05-01T02:16:23.222Z,101488.66
2023-05-01T02:18:50.906Z,101484.47
2023-05-01T02:21:19.012Z,101483.81
2023-05-01T02:23:45.797Z,101488.13
2023-05-01T02:26:16.449Z,101492.00
2023-05-01T02:28:43.097Z,101478.28
2023-05-01T02:31:10.274Z,101472.69
2023-05-01T02:33:37.064Z,101475.75
2023-05-01T02:36:03.853Z,101473.94
2023-05-01T02:38:30.925Z,101474.66
2023-05-01T02:40:58.700Z,101470.41
2023-05-01T02:43:27.864Z,101471.09
2023-05-01T02:45:55.268Z,101467.63
2023-05-01T02:48:24.170Z,101465.16
2023-05-01T02:50:52.777Z,101467.63
2023-05-01T02:53:20.350Z,101463.19
2023-05-01T02:55:47.734Z,101456.88
2023-05-01T02:58:18.904Z,101453.38
2023-05-01T03:00:47.221Z,101454.94
2023-05-01T03:03:13.808Z,101447.94
2023-05-01T03:05:40.580Z,101442.75
2023-05-01T03:08:07.572Z,101438.59
2023-05-01T03:10:35.095Z,101443.75
2023-05-01T03:13:01.557Z,101435.22
2023-05-01T03:15:27.862Z,101424.13
2023-05-01T03:17:54.247Z,101424.84
2023-05-01T03:20:20.600Z,101430.03
2023-05-01T03:22:47.059Z,101421.50
2023-05-01T03:25:13.433Z,101410.00
2023-05-01T03:27:39.770Z,101406.88
2023-05-01T03:30:07.000Z,101410.28
2023-05-01T03:32:33.451Z,101407.75
2023-05-01T03:34:59.861Z,101410.34
2023-05-01T03:37:26.252Z,101405.28
2023-05-01T03:39:52.557Z,101404.34
2023-05-01T03:42:18.910Z,101403.09
2023-05-01T03:44:45.569Z,101408.63
2023-05-01T03:47:11.893Z,101407.13
2023-05-01T03:49:38.197Z,101401.94
2023-05-01T03:52:04.611Z,101407.13
2023-05-01T03:54:30.944Z,101412.00
2023-05-01T03:56:57.270Z,101413.69
2023-05-01T03:59:23.600Z,101413.69
2023-05-01T04:01:49.953Z,101407.00
2023-05-01T04:04:16.401Z,101405.16
2023-05-01T04:06:42.821Z,101409.53
2023-05-01T04:09:09.182Z,101410.34
2023-05-01T04:11:35.504Z,101401.03
2023-05-01T04:14:01.993Z,101404.81
2023-05-01T04:16:28.428Z,101400.72
2023-05-01T04:18:54.798Z,101399.44
2023-05-01T04:21:21.195Z,101391.94
2023-05-01T04:23:47.521Z,101400.59
2023-05-01T04:26:13.873Z,101400.06
2023-05-01T04:28:40.180Z,101407.13
2023-05-01T04:31:06.580Z,101402.19
2023-05-01T04:33:32.946Z,101391.38
2023-05-01T04:35:59.273Z,101397.63
2023-05-01T04:38:25.688Z,101386.84
2023-05-01T04:40:52.040Z,101395.59
2023-05-01T04:43:18.358Z,101389.97
2023-05-01T04:45:44.698Z,101381.22
2023-05-01T04:48:11.132Z,101386.47
2023-05-01T04:50:37.530Z,101384.03
2023-05-01T04:53:03.886Z,101373.66
2023-05-01T04:55:31.218Z,101378.56
2023-05-01T04:57:57.720Z,101375.47
2023-05-01T05:00:24.158Z,101377.47
2023-05-01T05:02:50.571Z,101380.22
2023-05-01T05:05:16.972Z,101376.41
2023-05-01T05:07:43.300Z,101370.66
2023-05-01T05:10:09.968Z,101372.34
2023-05-01T05:12:36.326Z,101376.34
2023-05-01T05:15:02.660Z,101372.31
2023-05-01T05:17:29.050Z,101370.84
2023-05-01T05:19:55.710Z,101362.00
2023-05-01T05:22:22.276Z,101368.06
2023-05-01T05:24:53.223Z,101355.09
2023-05-01T05:27:19.594Z,101357.34
2023-05-01T05:29:45.922Z,101356.47
2023-05-01T05:32:12.280Z,101354.41
2023-05-01T05:34:38.893Z,101358.16
2023-05-01T05:37:05.266Z,101352.53
2023-05-01T05:39:31.602Z,101347.75
2023-05-01T05:41:57.972Z,101350.78
2023-05-01T05:44:24.304Z,101347.50
2023-05-01T05:46:50.646Z,101342.63
2023-05-01T05:49:17.014Z,101336.06
2023-05-01T05:51:43.399Z,101338.22
2023-05-01T05:54:09.740Z,101337.81
2023-05-01T05:56:36.068Z,101341.63
2023-05-01T05:59:02.412Z,101338.66
2023-05-01T06:01:29.229Z,101339.00
2023-05-01T06:03:55.779Z,101338.56
2023-05-01T06:06:22.757Z,101327.75
2023-05-01T06:08:49.184Z,101324.56
2023-05-01T06:11:15.528Z,101333.59
2023-05-01T06:13:41.817Z,101328.88
2023-05-01T06:16:08.321Z,101327.38
2023-05-01T06:18:34.852Z,101321.69
2023-05-01T06:21:01.204Z,101327.94
2023-05-01T06:23:27.992Z,101329.13
2023-05-01T06:25:54.333Z,101324.47
2023-05-01T06:28:20.654Z,101324.66
2023-05-01T06:30:47.119Z,101318.13
2023-05-01T06:33:13.797Z,101318.25
2023-05-01T06:35:40.266Z,101318.63
2023-05-01T06:38:06.580Z,101320.53
2023-05-01T06:40:33.003Z,101315.69
2023-05-01T06:42:59.322Z,101318.47
2023-05-01T06:45:25.650Z,101305.91
2023-05-01T06:47:52.153Z,101311.91
2023-05-01T06:50:18.502Z,101306.16
2023-05-01T06:52:44.865Z,101307.41
2023-05-01T06:55:11.233Z,101312.72
2023-05-01T06:57:37.661Z,101306.81
2023-05-01T07:00:04.430Z,101309.69
2023-05-01T07:02:30.843Z,101313.41
2023-05-01T07:04:57.428Z,101312.53
2023-05-01T07:07:23.831Z,101309.47
2023-05-01T07:09:50.207Z,101307.88
2023-05-01T07:12:16.536Z,101306.41
2023-05-01T07:14:42.917Z,101303.09
2023-05-01T07:17:09.284Z,101297.28
2023-05-01T07:19:35.658Z,101302.47
2023-05-01T07:22:02.197Z,101304.28
2023-05-01T07:24:28.550Z,101296.66
2023-05-01T07:26:54.988Z,101302.00
2023-05-01T07:29:21.322Z,101296.94
2023-05-01T07:31:47.707Z,101286.78
2023-05-01T07:34:14.055Z,101284.19
2023-05-01T07:36:40.419Z,101286.88
2023-05-01T07:39:06.743Z,101278.47
2023-05-01T07:41:33.076Z,101278.50
2023-05-01T07:43:59.660Z,101279.47
2023-05-01T07:46:26.190Z,101272.69
2023-05-01T07:48:52.771Z,101271.00
2023-05-01T07:51:19.215Z,101270.22
2023-05-01T07:53:45.541Z,101265.06
2023-05-01T07:56:11.911Z,101263.38
2023-05-01T07:58:38.355Z,101265.94
2023-05-01T08:01:05.895Z,101257.41
2023-05-01T08:03:32.425Z,101256.53
2023-05-01T08:05:58.868Z,101249.66
2023-05-01T08:08:25.282Z,101251.41
2023-05-01T08:10:52.335Z,101250.50
2023-05-01T08:13:18.967Z,101250.53
2023-05-01T08:15:48.839Z,101241.03
2023-05-01T08:18:15.312Z,101238.44
2023-05-01T08:20:41.637Z,101243.56
2023-05-01T08:23:07.964Z,101239.22
2023-05-01T08:25:34.298Z,101244.34
2023-05-01T08:28:00.669Z,101234.78
2023-05-01T08:30:27.042Z,101234.78
2023-05-01T08:32:53.434Z,101233.81
2023-05-01T08:35:19.785Z,101231.16
2023-05-01T08:37:46.140Z,101228.53
2023-05-01T08:40:12.569Z,101231.13
2023-05-01T08:42:39.076Z,101223.28
2023-05-01T08:45:09.551Z,101223.03
2023-05-01T08:47:40.514Z,101226.28
2023-05-01T08:50:10.805Z,101228.09
2023-05-01T08:52:40.785Z,101219.41
2023-05-01T08:55:11.718Z,101217.78
2023-05-01T08:57:39.038Z,101212.41
2023-05-01T09:00:06.730Z,101211.41
2023-05-01T09:02:35.047Z,101206.88
2023-05-01T09:05:03.257Z,101202.25
2023-05-01T09:07:29.919Z,101189.97
2023-05-01T09:09:56.731Z,101196.75
2023-05-01T09:12:25.754Z,101191.56
2023-05-01T09:14:53.483Z,101186.41
2023-05-01T09:17:21.585Z,101176.91
2023-05-01T09:19:49.972Z,101180.00
2023-05-01T09:22:18.761Z,101172.75
2023-05-01T09:24:45.497Z,101168.28
2023-05-01T09:27:13.360Z,101167.25
2023-05-01T09:29:44.943Z,101161.97
2023-05-01T09:32:26.246Z,101157.50
2023-05-01T09:34:53.080Z,101152.53
2023-05-01T09:37:28.524Z,101152.44
2023-05-01T09:40:12.177Z,101145.28
2023-05-01T09:42:52.929Z,101137.84
2023-05-01T09:45:20.053Z,101133.09
2023-05-01T09:47:47.169Z,101128.88
2023-05-01T09:50:34.756Z,101131.69
2023-05-01T09:53:02.452Z,101125.31
2023-05-01T09:55:28.885Z,101117.94
2023-05-01T09:57:55.310Z,101123.00
2023-05-01T10:00:21.985Z,101116.75
2023-05-01T10:02:49.828Z,101111.81
2023-05-01T10:05:16.771Z,101112.59
2023-05-01T10:07:56.692Z,101122.94
2023-05-01T10:10:23.415Z,101111.88
2023-05-01T10:12:50.187Z,101108.28
2023-05-01T10:15:25.292Z,101107.03
2023-05-01T10:17:54.332Z,101102.16
2023-05-01T10:20:21.568Z,101099.47
2023-05-01T10:22:48.280Z,101098.28
2023-05-01T10:25:15.760Z,101087.59
2023-05-01T10:27:42.393Z,101084.69
2023-05-01T10:30:10.109Z,101079.13
2023-05-01T10:32:40.280Z,101076.13
2023-05-01T10:35:19.179Z,101071.66
2023-05-01T10:37:51.617Z,101075.41
2023-05-01T10:40:40.376Z,101061.50
2023-05-01T10:43:30.595Z,101068.03
2023-05-01T10:46:18.085Z,101067.16
2023-05-01T10:48:47.883Z,101061.72
2023-05-01T10:51:20.003Z,101054.59
2023-05-01T10:54:10.087Z,101044.41
2023-05-01T10:56:58.968Z,101045.91
2023-05-01T10:59:26.232Z,101051.44
2023-05-01T11:01:53.436Z,101037.19
2023-05-01T11:04:23.058Z,101026.25
2023-05-01T11:07:02.032Z,101028.06
2023-05-01T11:09:42.001Z,101026.22
2023-05-01T11:12:10.216Z,101026.50
2023-05-01T11:14:55.261Z,101014.78
2023-05-01T11:17:52.598Z,101008.34
2023-05-01T11:20:24.916Z,101007.22
2023-05-01T11:22:56.111Z,100997.25
2023-05-01T11:25:23.720Z,100989.16
2023-05-01T11:28:10.980Z,100981.88
2023-05-01T11:30:38.764Z,100978.97
2023-05-01T11:33:07.119Z,100991.75
2023-05-01T11:35:36.074Z,100979.03
2023-05-01T11:38:02.802Z,100977.59
2023-05-01T11:40:30.193Z,100973.16
2023-05-01T11:43:07.662Z,100975.44
2023-05-01T11:45:37.824Z,100973.44
2023-05-01T11:48:05.850Z,100956.69
2023-05-01T11:50:33.885Z,100961.44
2023-05-01T11:53:00.347Z,100956.72
2023-05-01T11:55:34.883Z,100947.41
2023-05-01T11:58:01.917Z,100943.84
2023-05-01T12:00:31.059Z,100942.16
2023-05-01T12:03:08.052Z,100933.81
2023-05-01T12:05:36.616Z,100936.56
2023-05-01T12:08:14.957Z,100929.56
2023-05-01T12:10:43.653Z,100932.00
2023-05-01T12:13:13.124Z,100923.41
2023-05-01T12:15:45.310Z,100925.03
2023-05-01T12:18:13.715Z,100922.00
2023-05-01T12:20:49.264Z,100909.00
2023-05-01T12:23:16.693Z,100915.88
2023-05-01T12:25:44.606Z,100921.41
2023-05-01T12:28:15.405Z,100908.75
2023-05-01T12:30:43.951Z,100909.81
2023-05-01T12:33:14.904Z,100910.06
2023-05-01T12:35:43.009Z,100905.91
2023-05-01T12:38:16.744Z,100904.66
2023-05-01T12:40:57.632Z,100891.09
2023-05-01T12:43:37.325Z,100883.75
2023-05-01T12:46:05.897Z,100889.19
2023-05-01T12:48:33.185Z,100881.28
2023-05-01T12:51:00.828Z,100880.84
2023-05-01T12:53:29.033Z,100871.69
2023-05-01T12:55:58.665Z,100873.78
2023-05-01T12:58:37.711Z,100869.44
2023-05-01T13:01:05.753Z,100862.88
2023-05-01T13:03:34.760Z,100869.06
2023-05-01T13:06:03.813Z,100866.16
2023-05-01T13:08:36.547Z,100862.59
2023-05-01T13:11:12.053Z,100866.56
2023-05-01T13:13:39.270Z,100863.31
2023-05-01T13:16:11.856Z,100856.03
2023-05-01T13:18:50.396Z,100857.53
2023-05-01T13:21:21.200Z,100856.63
2023-05-01T13:23:59.449Z,100855.03
2023-05-01T13:26:35.837Z,100852.53
2023-05-01T13:29:04.277Z,100843.63
2023-05-01T13:31:31.342Z,100841.56
2023-05-01T13:33:59.644Z,100843.75
2023-05-01T13:36:31.765Z,100850.97
2023-05-01T13:38:58.280Z,100832.91
2023-05-01T13:41:26.396Z,100837.00
2023-05-01T13:43:54.646Z,100829.78
2023-05-01T13:46:23.840Z,100829.41
2023-05-01T13:48:50.896Z,100832.88
2023-05-01T13:51:26.987Z,100833.88
2023-05-01T13:53:56.183Z,100824.28
2023-05-01T13:56:23.970Z,100825.00
2023-05-01T13:58:50.774Z,100822.97
2023-05-01T14:01:22.776Z,100818.63
2023-05-01T14:03:50.072Z,100804.16
2023-05-01T14:06:19.438Z,100812.28
2023-05-01T14:08:47.504Z,100802.84
2023-05-01T14:11:15.094Z,100803.69
2023-05-01T14:13:44.606Z,100799.09
2023-05-01T14:16:22.010Z,100786.13
2023-05-01T14:18:48.610Z,100790.63
2023-05-01T14:21:16.924Z,100790.31
2023-05-01T14:23:43.349Z,100795.66
2023-05-01T14:26:11.473Z,100790.72
2023-05-01T14:28:42.235Z,100786.81
2023-05-01T14:31:08.988Z,100777.38
2023-05-01T14:33:41.935Z,100777.25
2023-05-01T14:36:09.367Z,100780.81
2023-05-01T14:38:36.153Z,100774.88
2023-05-01T14:41:04.625Z,100770.78
2023-05-01T14:43:31.118Z,100768.59
2023-05-01T14:45:57.611Z,100767.31
2023-05-01T14:48:35.233Z,100765.53
2023-05-01T14:51:04.129Z,100760.88
2023-05-01T14:53:32.709Z,100755.97
2023-05-01T14:55:59.157Z,100753.84
2023-05-01T14:58:25.926Z,100754.53
2023-05-01T15:00:52.560Z,100752.28
2023-05-01T15:03:19.448Z,100748.53
2023-05-01T15:05:46.383Z,100755.22
2023-05-01T15:08:13.157Z,100750.56
2023-05-01T15:10:39.968Z,100750.44
2023-05-01T15:13:06.532Z,100751.63
2023-05-01T15:15:35.229Z,100748.16
2023-05-01T15:18:01.771Z,100743.50
2023-05-01T15:20:29.305Z,100745.00
2023-05-01T15:22:56.902Z,100743.00
2023-05-01T15:25:23.569Z,100737.81
2023-05-01T15:27:50.083Z,100736.91
2023-05-01T15:30:16.487Z,100740.16
2023-05-01T15:32:43.608Z,100746.22
2023-05-01T15:35:10.771Z,100740.41
2023-05-01T15:37:37.274Z,100732.91
2023-05-01T15:40:05.043Z,100734.91
2023-05-01T15:42:33.090Z,100729.13
2023-05-01T15:45:00.152Z,100731.56
2023-05-01T15:47:26.985Z,100730.47
2023-05-01T15:49:54.021Z,100721.09
2023-05-01T15:52:20.434Z,100732.28
2023-05-01T15:54:47.156Z,100722.91
2023-05-01T15:57:14.268Z,100724.63
2023-05-01T15:59:40.869Z,100717.72
2023-05-01T16:02:07.932Z,100725.66
2023-05-01T16:04:34.974Z,100726.88
2023-05-01T16:07:02.764Z,100719.75
2023-05-01T16:09:32.878Z,100715.25
2023-05-01T16:12:01.941Z,100719.63
2023-05-01T16:14:28.579Z,100720.38
2023-05-01T16:16:55.040Z,100712.72
2023-05-01T16:19:21.708Z,100715.00
2023-05-01T16:21:48.125Z,100714.50
2023-05-01T16:24:14.952Z,100709.09
2023-05-01T16:26:41.689Z,100710.91
2023-05-01T16:29:08.517Z,100718.06
2023-05-01T16:31:39.711Z,100717.25
2023-05-01T16:34:07.233Z,100712.09
2023-05-01T16:36:40.191Z,100706.53
2023-05-01T16:39:07.884Z,100714.38
2023-05-01T16:41:50.593Z,100706.78
2023-05-01T16:44:18.660Z,100712.00
2023-05-01T16:46:53.849Z,100709.38
2023-05-01T16:49:20.662Z,100715.47
2023-05-01T16:51:47.247Z,100706.94
2023-05-01T16:54:13.752Z,100710.63
2023-05-01T16:56:40.273Z,100709.97
2023-05-01T16:59:06.947Z,100711.81
2023-05-01T17:01:34.591Z,100712.34
2023-05-01T17:04:01.344Z,100712.53
2023-05-01T17:06:27.776Z,100716.25
2023-05-01T17:08:54.273Z,100710.25
2023-05-01T17:11:21.544Z,100709.34
2023-05-01T17:13:48.266Z,100706.78
2023-05-01T17:16:14.787Z,100701.88
2023-05-01T17:18:41.370Z,100713.19
2023-05-01T17:21:08.315Z,100710.88
2023-05-01T17:23:34.772Z,100706.69
2023-05-01T17:26:01.329Z,100715.50
2023-05-01T17:28:28.104Z,100710.56
2023-05-01T17:30:54.820Z,100707.34
2023-05-01T17:33:22.231Z,100704.19
2023-05-01T17:35:48.720Z,100703.56
2023-05-01T17:38:17.821Z,100705.50
2023-05-01T17:40:44.431Z,100711.72
2023-05-01T17:43:11.080Z,100713.78
2023-05-01T17:45:37.555Z,100706.22
2023-05-01T17:48:04.462Z,100711.66
2023-05-01T17:50:32.236Z,100710.19
2023-05-01T17:52:58.682Z,100710.56
2023-05-01T17:55:25.139Z,100710.91
2023-05-01T17:57:52.217Z,100703.63
2023-05-01T18:00:19.188Z,100712.66
2023-05-01T18:02:45.699Z,100700.81
2023-05-01T18:05:12.742Z,100701.13
2023-05-01T18:07:39.291Z,100698.88
2023-05-01T18:10:06.414Z,100693.09
2023-05-01T18:12:32.842Z,100698.50
2023-05-01T18:14:59.318Z,100699.47
2023-05-01T18:17:25.834Z,100701.41
2023-05-01T18:19:52.377Z,100694.84
2023-05-01T18:22:18.830Z,100692.38
2023-05-01T18:24:45.273Z,100702.16
2023-05-01T18:27:12.453Z,100697.28
2023-05-01T18:29:38.942Z,100693.00
2023-05-01T18:32:05.771Z,100691.56
2023-05-01T18:34:32.327Z,100684.91
2023-05-01T18:36:58.756Z,100679.78
2023-05-01T18:39:25.291Z,100687.66
2023-05-01T18:41:54.174Z,100685.31
2023-05-01T18:44:20.747Z,100685.38
2023-05-01T18:46:47.257Z,100691.56
2023-05-01T18:49:13.816Z,100686.50
2023-05-01T18:51:40.261Z,100693.50
2023-05-01T18:54:06.767Z,100699.75
2023-05-01T18:56:33.512Z,100703.41
2023-05-01T18:59:00.729Z,100704.34
2023-05-01T19:01:27.185Z,100697.56
2023-05-01T19:03:53.719Z,100698.56
2023-05-01T19:06:20.151Z,100702.13
2023-05-01T19:08:46.619Z,100700.59
2023-05-01T19:11:13.049Z,100710.94
2023-05-01T19:13:39.499Z,100709.31
2023-05-01T19:16:06.154Z,100712.75
2023-05-01T19:18:32.619Z,100712.81
2023-05-01T19:20:59.098Z,100709.53
2023-05-01T19:23:25.485Z,100708.81
2023-05-01T19:25:51.983Z,100709.75
2023-05-01T19:28:18.421Z,100709.69
2023-05-01T19:30:44.924Z,100695.16
2023-05-01T19:33:11.401Z,100698.63
2023-05-01T19:35:37.944Z,100696.06
2023-05-01T19:38:04.388Z,100697.06
2023-05-01T19:40:31.716Z,100694.66
2023-05-01T19:42:58.116Z,100701.66
2023-05-01T19:45:24.549Z,100698.31
2023-05-01T19:47:51.155Z,100694.91
2023-05-01T19:50:17.962Z,100698.44
2023-05-01T19:52:44.383Z,100697.69
2023-05-01T19:55:11.057Z,100696.00
2023-05-01T19:57:37.461Z,100697.81
2023-05-01T20:00:10.895Z,100692.69
2023-05-01T20:02:37.878Z,100686.69
2023-05-01T20:05:05.003Z,100686.78
2023-05-01T20:07:31.690Z,100681.59
2023-05-01T20:09:58.644Z,100682.41
2023-05-01T20:12:25.556Z,100679.91
2023-05-01T20:14:52.082Z,100683.41
2023-05-01T20:17:18.789Z,100681.72
2023-05-01T20:19:45.570Z,100677.47
2023-05-01T20:22:12.369Z,100672.38
2023-05-01T20:24:39.091Z,100674.94
2023-05-01T20:27:05.842Z,100675.81
2023-05-01T20:29:32.570Z,100674.97
2023-05-01T20:32:04.388Z,100677.56
2023-05-01T20:34:34.093Z,100673.38
2023-05-01T20:37:00.565Z,100675.94
2023-05-01T20:39:26.983Z,100679.38
2023-05-01T20:41:53.854Z,100673.44
2023-05-01T20:44:20.261Z,100683.75
2023-05-01T20:46:46.855Z,100682.88
2023-05-01T20:49:15.921Z,100683.78
2023-05-01T20:51:42.999Z,100682.97
2023-05-01T20:54:09.673Z,100677.00
2023-05-01T20:56:36.111Z,100683.06
2023-05-01T20:59:04.502Z,100684.78
2023-05-01T21:01:31.555Z,100680.50
2023-05-01T21:04:00.011Z,100689.16
2023-05-01T21:06:26.919Z,100686.59
2023-05-01T21:08:53.409Z,100687.44
2023-05-01T21:11:20.108Z,100693.50
2023-05-01T21:13:46.542Z,100688.34
2023-05-01T21:16:14.892Z,100685.75
2023-05-01T21:18:41.614Z,100692.59
2023-05-01T21:21:08.927Z,100693.50
2023-05-01T21:23:36.320Z,100693.53
2023-05-01T21:26:03.005Z,100696.09
2023-05-01T21:28:29.910Z,100695.22
2023-05-01T21:30:56.623Z,100691.81
2023-05-01T21:33:23.208Z,100696.13
2023-05-01T21:35:49.666Z,100694.44
2023-05-01T21:38:16.770Z,100700.44
2023-05-01T21:40:43.646Z,100693.66
2023-05-01T21:43:10.069Z,100696.22
2023-05-01T21:45:39.199Z,100697.09
2023-05-01T21:48:07.520Z,100697.94
2023-05-01T21:50:37.154Z,100701.38
2023-05-01T21:53:05.355Z,100698.81
2023-05-01T21:55:31.913Z,100704.81
2023-05-01T21:57:58.738Z,100707.41
2023-05-01T22:00:25.695Z,100702.28
2023-05-01T22:02:52.258Z,100701.44
2023-05-01T22:05:21.537Z,100700.56
2023-05-01T22:07:49.104Z,100706.56
2023-05-01T22:10:21.683Z,100704.00
2023-05-01T22:12:48.396Z,100711.72
2023-05-01T22:15:16.122Z,100705.72
2023-05-01T22:17:42.905Z,100705.75
2023-05-01T22:20:09.867Z,100702.34
2023-05-01T22:22:36.576Z,100708.34
2023-05-01T22:25:04.200Z,100710.91
2023-05-01T22:27:31.358Z,100707.53
2023-05-01T22:29:58.213Z,100704.09
2023-05-01T22:32:24.983Z,100705.81
2023-05-01T22:34:51.826Z,100705.81
2023-05-01T22:37:18.513Z,100708.41
2023-05-01T22:39:45.332Z,100710.97
2023-05-01T22:42:13.263Z,100716.97
2023-05-01T22:44:40.001Z,100710.09
2023-05-01T22:47:06.449Z,100712.69
2023-05-01T22:49:32.909Z,100707.53
2023-05-01T22:51:59.630Z,100709.25
2023-05-01T22:54:26.328Z,100709.25
2023-05-01T22:56:52.935Z,100710.09
2023-05-01T22:59:19.989Z,100706.69
2023-05-01T23:01:46.703Z,100711.81
2023-05-01T23:04:13.911Z,100709.25
2023-05-01T23:06:41.059Z,100716.09
2023-05-01T23:09:07.687Z,100718.69
2023-05-01T23:11:34.859Z,100718.69
2023-05-01T23:14:01.768Z,100718.69
2023-05-01T23:16:32.190Z,100714.44
2023-05-01T23:18:58.972Z,100717.00
2023-05-01T23:21:25.941Z,100716.16
2023-05-01T23:23:52.775Z,100716.19
2023-05-01T23:26:27.951Z,100711.00
2023-05-01T23:28:55.007Z,100716.19
2023-05-01T23:31:24.000Z,100714.47
2023-05-01T23:33:50.744Z,100714.47
2023-05-01T23:36:18.033Z,100715.31
2023-05-01T23:38:44.786Z,100712.78
2023-05-01T23:41:12.040Z,100706.81
2023-05-01T23:43:38.724Z,100715.38
2023-05-01T23:46:06.194Z,100709.41
2023-05-01T23:48:33.885Z,100709.41
2023-05-01T23:51:00.681Z,100706.84
2023-05-01T23:53:27.293Z,100717.97
2023-05-01T23:55:53.768Z,100707.72
2023-05-01T23:58:20.524Z,100712.03
